Fulton, Ohio
Current Conditions -  °F | °C
As of 2:53 PM on Friday 24 Oct 2014 (Local Time) from KMNN Reporting Station
Clear Clear  
Wind Chill: 62°   Ceiling: Unl
Heat Index: 62°   Visibility: 7mi
Dew Point: 39°   Wind: 5mph
Humidity: 43%   Direction: NA
Pressure: 30.04"   Gusts: NA
Location:  40.46°N, 82.83°W
Report Text: KMNN 241853Z AUTO VRB04KT 7SM CLR 17/04 A3004 RMK AO2 SLP175 T01670039 TSNO
Loading
Personal Weather Stations






























Interactive Weather Map
Tropical Storm Tracking
New forecast layout! Learn more

10-Day Weather Forecast

Advertisements
Track Severe Weather on mobile